Time;durP1;ratioP1;P1;durP2;ratioP2;P2;SDS_P1;SDS_P2;PMS_P1;PMS_P2;Temp;Humidity;BMP_temperature;BMP_pressure;BME280_temperature;BME280_humidity;BME280_pressure;Samples;Min_cycle;Max_cycle;Signal;HPM_P1;HPM_P2
2023/05/22 00:01:11;;;;;;;5.97;3.00;;;;;;;14.77;50.71;100674.23;1744854;82;21070;-63
2023/05/22 00:03:42;;;;;;;5.62;2.87;;;;;;;14.79;50.63;100664.36;1744977;82;21027;-63
2023/05/22 00:06:11;;;;;;;5.25;3.50;;;;;;;14.78;50.50;100667.66;1742323;82;21503;-63
2023/05/22 00:08:40;;;;;;;9.38;3.60;;;;;;;14.76;50.56;100669.78;1734927;83;21495;-65
2023/05/22 00:11:10;;;;;;;5.33;3.40;;;;;;;14.75;50.49;100672.22;1734643;83;21189;-64
2023/05/22 00:13:39;;;;;;;6.30;3.22;;;;;;;14.70;50.70;100672.03;1734631;83;21455;-63
2023/05/22 00:16:09;;;;;;;4.85;3.50;;;;;;;14.65;50.77;100667.70;1734853;83;21019;-62
2023/05/22 00:18:43;;;;;;;3.58;2.87;;;;;;;14.61;50.76;100662.31;1734701;83;21036;-65
2023/05/22 00:21:13;;;;;;;5.40;3.40;;;;;;;14.63;50.80;100663.47;1734643;83;21071;-63
2023/05/22 00:23:42;;;;;;;5.42;3.10;;;;;;;14.61;50.85;100659.55;1734659;82;21523;-64
2023/05/22 00:26:16;;;;;;;7.62;3.45;;;;;;;14.60;50.96;100662.00;1734617;83;21468;-63
2023/05/22 00:28:47;;;;;;;9.73;3.52;;;;;;;14.59;51.17;100658.39;1734747;83;21031;-63
2023/05/22 00:31:17;;;;;;;8.65;3.60;;;;;;;14.57;51.30;100659.67;1735063;83;21051;-63
2023/05/22 00:33:48;;;;;;;5.90;3.42;;;;;;;14.54;51.42;100656.82;1734806;82;21048;-64
2023/05/22 00:36:18;;;;;;;7.95;3.50;;;;;;;14.50;51.59;100658.85;1734630;83;21059;-64
2023/05/22 00:38:50;;;;;;;9.23;3.67;;;;;;;14.48;51.74;100655.47;1734766;83;21455;-63
2023/05/22 00:41:21;;;;;;;6.03;3.90;;;;;;;14.46;51.91;100661.73;1734664;82;21036;-63
2023/05/22 00:43:51;;;;;;;5.58;3.70;;;;;;;14.46;52.04;100661.73;1734660;83;21027;-64
2023/05/22 00:46:23;;;;;;;7.72;3.90;;;;;;;14.45;52.13;100655.90;1734684;83;21000;-64
2023/05/22 00:48:58;;;;;;;7.67;3.75;;;;;;;14.46;52.40;100654.83;1734615;83;21095;-64
2023/05/22 00:51:27;;;;;;;5.67;3.70;;;;;;;14.41;52.30;100651.84;1734947;83;21071;-63
2023/05/22 00:53:56;;;;;;;6.15;3.70;;;;;;;14.41;52.16;100655.98;1734661;82;21053;-66
2023/05/22 00:56:27;;;;;;;6.00;3.35;;;;;;;14.41;52.10;100650.47;1714461;83;21083;-63
2023/05/22 00:58:58;;;;;;;7.30;3.92;;;;;;;14.43;52.07;100650.59;1734653;82;21063;-63
2023/05/22 01:01:32;;;;;;;8.10;4.22;;;;;;;14.44;52.03;100649.53;1734665;83;20999;-63
2023/05/22 01:04:06;;;;;;;8.83;4.20;;;;;;;14.45;52.09;100647.63;1734608;83;21076;-63
2023/05/22 01:06:38;;;;;;;7.37;4.20;;;;;;;14.46;52.17;100646.56;1734731;82;21079;-63
2023/05/22 01:09:09;;;;;;;6.03;4.00;;;;;;;14.46;52.15;100654.83;1734650;83;21070;-63
2023/05/22 01:11:59;;;;;;;7.50;4.22;;;;;;;14.43;52.22;100649.22;1734697;82;21105;-63
2023/05/22 01:14:57;;;;;;;11.85;4.22;;;;;;;14.39;52.43;100645.17;1734992;83;21485;-63
2023/05/22 01:17:45;;;;;;;8.23;4.47;;;;;;;14.36;52.52;100646.14;1734939;83;21027;-64
2023/05/22 01:20:20;;;;;;;;;;;;;;;14.34;52.73;100644.13;1737326;83;21083;-63
2023/05/22 01:23:31;;;;;;;9.00;4.22;;;;;;;14.26;52.91;100640.52;1734901;83;20189;-64
2023/05/22 01:26:26;;;;;;;10.23;4.08;;;;;;;14.21;53.08;100643.60;1734912;83;21548;-63
2023/05/22 01:29:35;;;;;;;6.62;4.12;;;;;;;14.17;53.10;100639.05;1734691;82;21051;-63
2023/05/22 01:32:05;;;;;;;12.93;4.75;;;;;;;14.18;53.18;100637.14;1734793;83;21079;-63
2023/05/22 01:34:36;;;;;;;9.58;4.28;;;;;;;14.18;53.21;100633.86;1734735;83;21198;-63
2023/05/22 01:37:05;;;;;;;7.10;4.28;;;;;;;14.18;53.27;100635.23;1734719;83;21098;-63
2023/05/22 01:39:35;;;;;;;9.40;4.40;;;;;;;14.18;53.33;100630.25;1734711;83;21075;-63
2023/05/22 01:42:06;;;;;;;10.43;4.60;;;;;;;14.16;53.38;100627.71;1734862;83;21063;-62
2023/05/22 01:44:36;;;;;;;11.90;4.53;;;;;;;14.12;53.42;100629.20;1734752;82;21035;-63
2023/05/22 01:47:07;;;;;;;8.33;4.70;;;;;;;14.08;53.56;100629.32;1691349;82;21487;-64
2023/05/22 01:49:37;;;;;;;8.35;4.10;;;;;;;14.05;53.64;100628.91;1734660;83;21455;-64
2023/05/22 01:52:34;;;;;;;8.45;4.10;;;;;;;14.04;53.71;100628.05;1734760;82;21070;-63
2023/05/22 01:55:12;;;;;;;9.43;4.10;;;;;;;14.02;53.77;100620.53;1734610;83;21074;-64
2023/05/22 01:57:59;;;;;;;10.63;4.50;;;;;;;14.01;53.92;100621.59;1714471;83;21004;-63
2023/05/22 02:00:28;;;;;;;5.40;4.03;;;;;;;14.01;53.96;100624.89;1734722;83;21079;-63
2023/05/22 02:03:02;;;;;;;5.70;4.20;;;;;;;14.00;54.03;100622.66;1734774;83;21020;-63
2023/05/22 02:05:32;;;;;;;6.87;4.20;;;;;;;14.01;54.06;100620.22;1735026;83;21055;-63
2023/05/22 02:08:02;;;;;;;15.60;10.32;;;;;;;14.02;54.06;100628.80;1738307;82;21083;-63
2023/05/22 02:10:31;;;;;;;14.53;6.15;;;;;;;14.05;54.05;100619.26;1739757;82;21538;-64
2023/05/22 02:13:03;;;;;;;5.92;4.30;;;;;;;14.09;54.01;100627.41;1739430;82;20999;-62
2023/05/22 02:15:32;;;;;;;9.48;4.80;;;;;;;14.07;53.98;100621.27;1739695;81;21066;-63
2023/05/22 02:18:02;;;;;;;7.05;4.28;;;;;;;14.07;53.96;100630.38;1740006;81;21043;-62
2023/05/22 02:20:32;;;;;;;8.68;4.50;;;;;;;14.07;54.02;100624.88;1739246;82;21451;-62
2023/05/22 02:23:01;;;;;;;5.35;3.95;;;;;;;14.09;53.96;100628.79;1739286;82;21148;-64
2023/05/22 02:25:31;;;;;;;8.43;4.70;;;;;;;14.08;53.93;100629.85;1739791;82;21114;-62
2023/05/22 02:28:01;;;;;;;7.22;4.47;;;;;;;14.07;53.99;100637.80;1739470;82;21075;-62
2023/05/22 02:30:31;;;;;;;7.87;4.15;;;;;;;14.06;53.95;100638.33;1739416;82;21114;-63
2023/05/22 02:33:04;;;;;;;10.45;4.92;;;;;;;14.08;53.95;100637.59;1739347;81;21047;-63
2023/05/22 02:35:34;;;;;;;8.73;4.10;;;;;;;14.11;53.90;100633.55;1739351;82;21038;-63
2023/05/22 02:38:05;;;;;;;5.50;3.70;;;;;;;14.12;53.77;100636.63;1739358;82;21086;-63
2023/05/22 02:40:34;;;;;;;7.15;4.37;;;;;;;14.10;53.80;100632.70;1739720;81;21066;-64
2023/05/22 02:43:04;;;;;;;8.75;4.40;;;;;;;14.09;53.75;100632.39;1713621;82;21522;-62
2023/05/22 02:45:34;;;;;;;6.53;4.35;;;;;;;14.10;53.62;100627.73;1745159;82;21066;-63
2023/05/22 02:48:05;;;;;;;7.33;4.10;;;;;;;14.14;53.45;100638.11;1745074;82;21067;-62
2023/05/22 02:50:35;;;;;;;6.67;4.25;;;;;;;14.15;53.33;100628.77;1745120;82;21505;-63
2023/05/22 02:53:05;;;;;;;7.45;4.70;;;;;;;14.15;53.29;100623.27;1713944;82;21078;-62
2023/05/22 02:55:36;;;;;;;8.05;4.55;;;;;;;14.16;53.34;100635.98;1745111;82;21027;-63
2023/05/22 02:58:10;;;;;;;8.30;4.37;;;;;;;14.15;53.43;100633.44;1744951;81;21043;-62
2023/05/22 03:00:38;;;;;;;9.68;4.53;;;;;;;14.13;53.47;100632.81;1745185;82;21089;-62
2023/05/22 03:03:07;;;;;;;7.35;4.05;;;;;;;14.10;53.42;100639.59;1745048;82;21039;-63
2023/05/22 03:05:38;;;;;;;8.35;4.47;;;;;;;14.10;53.33;100645.11;1745245;82;21066;-62
2023/05/22 03:08:08;;;;;;;8.45;4.72;;;;;;;14.09;53.31;100642.03;1745115;81;21058;-62
2023/05/22 03:10:38;;;;;;;8.43;4.62;;;;;;;14.08;53.32;100645.01;1714395;82;21047;-62
2023/05/22 03:13:09;;;;;;;5.17;3.62;;;;;;;14.07;53.60;100640.02;1744839;82;20999;-62
2023/05/22 03:15:39;;;;;;;6.60;4.08;;;;;;;14.08;53.44;100644.48;1744945;81;21090;-63
2023/05/22 03:18:10;;;;;;;9.05;4.22;;;;;;;14.12;53.32;100647.65;1744364;82;21057;-62
2023/05/22 03:20:40;;;;;;;10.82;4.65;;;;;;;14.12;53.24;100640.23;1744926;81;21110;-63
2023/05/22 03:23:12;;;;;;;6.85;4.33;;;;;;;14.14;53.32;100643.62;1744825;82;21477;-63
2023/05/22 03:25:42;;;;;;;10.23;4.17;;;;;;;14.18;53.27;100639.37;1745124;81;21063;-62
2023/05/22 03:28:13;;;;;;;7.53;4.28;;;;;;;14.20;53.37;100641.38;1744862;82;21478;-63
2023/05/22 03:30:43;;;;;;;6.55;4.05;;;;;;;14.23;53.24;100637.34;1744911;82;21042;-63
2023/05/22 03:33:18;;;;;;;8.98;4.35;;;;;;;14.25;53.05;100640.20;1744242;82;20999;-62
2023/05/22 03:35:48;;;;;;;10.00;4.45;;;;;;;14.32;52.90;100634.70;1744993;81;21003;-63
2023/05/22 03:38:18;;;;;;;6.80;4.17;;;;;;;14.37;52.78;100636.80;1744932;82;21011;-62
2023/05/22 03:40:48;;;;;;;11.68;4.83;;;;;;;14.40;52.96;100634.99;1744822;81;21078;-62
2023/05/22 03:43:18;;;;;;;7.62;4.80;;;;;;;14.41;52.79;100629.80;1744764;82;21054;-62
2023/05/22 03:45:47;;;;;;;8.65;4.58;;;;;;;14.43;52.73;100636.81;1745171;81;21058;-64
2023/05/22 03:48:17;;;;;;;10.78;4.45;;;;;;;14.45;52.77;100640.73;1744764;82;21062;-62
2023/05/22 03:50:47;;;;;;;7.40;4.58;;;;;;;14.49;52.77;100636.48;1713821;82;21027;-64
2023/05/22 03:53:16;;;;;;;8.35;4.75;;;;;;;14.52;52.95;100636.05;1744821;82;21177;-62
2023/05/22 03:55:46;;;;;;;8.75;4.47;;;;;;;14.55;52.91;100636.98;1744880;82;21067;-63
2023/05/22 03:58:15;;;;;;;7.10;4.45;;;;;;;14.58;53.01;100646.20;1745140;82;21054;-64
2023/05/22 04:00:46;;;;;;;10.80;4.50;;;;;;;14.61;52.59;100644.38;1744921;82;21102;-62
2023/05/22 04:03:18;;;;;;;9.70;4.78;;;;;;;14.67;52.36;100640.75;1745014;82;21042;-62
2023/05/22 04:05:46;;;;;;;8.45;4.58;;;;;;;14.73;52.25;100645.39;1745042;82;21015;-62
2023/05/22 04:08:16;;;;;;;8.25;4.30;;;;;;;14.77;52.32;100639.75;1733484;81;21107;-63
2023/05/22 04:10:45;;;;;;;8.03;4.75;;;;;;;14.79;52.08;100632.10;1726867;82;21051;-62
2023/05/22 04:13:16;;;;;;;12.00;5.22;;;;;;;14.83;51.99;100634.73;1726521;83;21095;-63
2023/05/22 04:15:46;;;;;;;10.82;4.90;;;;;;;14.86;51.97;100638.44;1726686;83;21078;-62
2023/05/22 04:18:16;;;;;;;6.75;4.30;;;;;;;14.92;51.83;100639.47;1726700;83;21506;-62
2023/05/22 04:20:45;;;;;;;10.43;4.65;;;;;;;14.99;51.71;100640.31;1726685;82;21043;-63
2023/05/22 04:23:16;;;;;;;10.90;4.70;;;;;;;15.05;51.55;100641.34;1726644;82;21004;-63
2023/05/22 04:25:47;;;;;;;9.25;4.30;;;;;;;15.09;51.49;100633.77;1726838;82;21048;-63
2023/05/22 04:28:21;;;;;;;8.00;4.80;;;;;;;15.15;51.25;100641.16;1726843;83;21052;-62
2023/05/22 04:30:48;;;;;;;11.22;4.95;;;;;;;15.21;50.90;100638.05;1726580;82;21070;-63
2023/05/22 04:33:20;;;;;;;7.87;4.83;;;;;;;15.22;50.82;100633.69;1717351;82;21096;-62
2023/05/22 04:35:49;;;;;;;13.75;4.80;;;;;;;15.27;50.81;100630.80;1726563;83;21044;-63
2023/05/22 04:38:18;;;;;;;11.00;5.00;;;;;;;15.32;50.41;100634.58;1727476;82;21056;-62
2023/05/22 04:40:49;;;;;;;9.55;5.20;;;;;;;15.37;50.42;100633.37;1706426;83;21048;-63
2023/05/22 04:43:18;;;;;;;8.25;4.83;;;;;;;15.44;50.26;100625.03;1727098;82;21087;-63
2023/05/22 04:45:47;;;;;;;7.83;4.87;;;;;;;15.48;49.96;100626.28;1727110;82;21036;-64
2023/05/22 04:48:18;;;;;;;11.08;5.25;;;;;;;15.51;50.01;100623.91;1726833;83;21476;-63
2023/05/22 04:50:47;;;;;;;12.10;5.20;;;;;;;15.58;50.04;100619.75;1726848;83;21059;-63
2023/05/22 04:53:17;;;;;;;13.93;4.97;;;;;;;15.66;49.77;100626.94;1726571;82;21472;-62
2023/05/22 04:55:48;;;;;;;10.13;4.90;;;;;;;15.77;49.33;100621.52;1726385;83;21179;-63
2023/05/22 04:58:17;;;;;;;8.68;4.58;;;;;;;15.95;48.99;100619.87;1726755;82;21287;-63
2023/05/22 05:00:46;;;;;;;12.30;5.33;;;;;;;16.20;48.61;100615.14;1726547;82;21035;-62
2023/05/22 05:03:16;;;;;;;9.15;4.55;;;;;;;16.52;47.61;100612.25;1726752;82;20995;-63
2023/05/22 05:05:46;;;;;;;9.33;4.28;;;;;;;16.83;46.67;100616.23;1726922;82;21072;-63
2023/05/22 05:08:16;;;;;;;8.45;4.33;;;;;;;17.17;45.98;100607.80;1731086;82;21208;-63
2023/05/22 05:10:47;;;;;;;6.20;4.08;;;;;;;17.51;44.87;100612.27;1734627;83;21476;-63
2023/05/22 05:13:17;;;;;;;7.12;4.30;;;;;;;17.82;44.05;100612.02;1734610;82;21023;-63
2023/05/22 05:15:47;;;;;;;9.03;4.47;;;;;;;18.11;42.83;100606.58;1734558;83;21079;-64
2023/05/22 05:18:18;;;;;;;8.50;4.15;;;;;;;18.34;42.39;100613.52;1734716;83;21020;-62
2023/05/22 05:20:48;;;;;;;7.67;4.03;;;;;;;18.57;41.54;100612.63;1734581;82;21011;-62
2023/05/22 05:23:18;;;;;;;9.48;4.30;;;;;;;18.83;41.23;100615.42;1734450;83;21043;-62
2023/05/22 05:25:48;;;;;;;9.80;4.60;;;;;;;19.08;40.68;100615.10;1734864;83;21110;-63
2023/05/22 05:28:19;;;;;;;7.65;4.05;;;;;;;19.30;40.08;100609.97;1734490;82;21452;-64
2023/05/22 05:30:49;;;;;;;7.45;4.10;;;;;;;19.43;39.36;100615.76;1713766;83;21039;-63
2023/05/22 05:33:19;;;;;;;7.75;4.37;;;;;;;19.53;39.28;100616.55;1729910;83;21503;-63
2023/05/22 05:36:00;;;;;;;11.25;4.95;;;;;;;19.64;38.81;100611.45;1734367;82;21039;-62
2023/05/22 05:38:30;;;;;;;10.43;4.65;;;;;;;19.86;39.27;100615.16;1734455;83;21039;-62
2023/05/22 05:41:00;;;;;;;8.95;4.75;;;;;;;20.13;38.32;100610.28;1734453;83;21182;-67
2023/05/22 05:43:30;;;;;;;7.20;4.15;;;;;;;20.30;38.51;100614.45;1734627;83;21440;-63
2023/05/22 05:46:02;;;;;;;10.48;4.65;;;;;;;20.49;38.27;100599.16;1734711;82;21024;-63
2023/05/22 05:48:32;;;;;;;8.93;4.15;;;;;;;20.77;37.99;100597.56;1713972;82;21063;-63
2023/05/22 05:51:03;;;;;;;8.63;4.37;;;;;;;20.97;37.27;100594.75;1734632;82;21054;-63
2023/05/22 05:53:39;;;;;;;11.10;4.58;;;;;;;21.06;37.55;100597.36;1734478;82;21122;-64
2023/05/22 05:56:09;;;;;;;7.25;4.17;;;;;;;21.29;37.41;100599.02;1734584;83;21471;-63
2023/05/22 05:58:40;;;;;;;8.58;4.03;;;;;;;21.57;36.94;100601.55;1734928;83;21043;-64
2023/05/22 06:01:27;;;;;;;10.08;4.30;;;;;;;21.86;36.31;100595.08;1734003;82;21023;-63
2023/05/22 06:04:01;;;;;;;7.60;4.40;;;;;;;22.10;36.14;100592.77;1734747;83;21015;-63
2023/05/22 06:06:36;;;;;;;7.33;3.90;;;;;;;22.31;35.57;100590.97;1734606;83;21039;-63
2023/05/22 06:09:11;;;;;;;11.35;4.55;;;;;;;22.49;35.17;100596.09;1730079;81;21079;-64
2023/05/22 06:11:55;;;;;;;5.97;3.95;;;;;;;22.66;35.09;100588.34;1701259;82;21032;-67
2023/05/22 06:14:25;;;;;;;7.12;4.00;;;;;;;22.77;34.55;100592.05;1732198;82;21080;-62
2023/05/22 06:16:55;;;;;;;6.60;4.10;;;;;;;22.96;34.29;100596.61;1731851;83;21407;-64
2023/05/22 06:19:27;;;;;;;8.58;3.50;;;;;;;23.02;34.29;100595.52;1731810;83;21549;-64
2023/05/22 06:21:56;;;;;;;7.22;4.20;;;;;;;23.04;34.55;100594.68;1738934;82;21079;-63
2023/05/22 06:24:26;;;;;;;8.48;3.90;;;;;;;23.22;34.05;100591.36;1731704;82;21089;-64
2023/05/22 06:26:55;;;;;;;9.53;4.00;;;;;;;23.35;33.65;100594.17;1738846;81;21153;-63
2023/05/22 06:29:25;;;;;;;7.50;3.95;;;;;;;23.42;33.18;100589.18;1731593;81;21095;-63
2023/05/22 06:31:55;;;;;;;8.05;3.70;;;;;;;23.47;33.22;100595.34;1712325;82;21079;-64
2023/05/22 06:34:26;;;;;;;6.60;3.62;;;;;;;23.61;33.09;100583.34;1738765;82;21103;-64
2023/05/22 06:36:57;;;;;;;4.67;3.33;;;;;;;23.84;32.89;100590.33;1731529;81;21115;-63
2023/05/22 06:39:29;;;;;;;7.95;3.85;;;;;;;24.00;32.15;100589.19;1739093;82;21016;-65
2023/05/22 06:42:06;;;;;;;8.23;3.10;;;;;;;23.97;31.96;100581.92;1730870;83;21485;-65
2023/05/22 06:44:53;;;;;;;8.18;3.83;;;;;;;23.95;32.06;100589.77;1731744;83;21051;-64
2023/05/22 06:47:23;;;;;;;9.43;3.83;;;;;;;24.11;31.88;100580.25;1738835;82;21043;-65
2023/05/22 06:49:53;;;;;;;10.50;4.12;;;;;;;24.21;31.48;100575.19;1732115;82;21075;-64
2023/05/22 06:52:22;;;;;;;6.17;3.47;;;;;;;24.31;31.46;100573.22;1738831;82;21043;-64
2023/05/22 06:54:51;;;;;;;8.08;3.30;;;;;;;24.46;30.97;100570.09;1731526;83;21058;-64
2023/05/22 06:57:22;;;;;;;5.90;3.05;;;;;;;24.52;31.11;100570.34;1738885;82;21115;-64
2023/05/22 06:59:51;;;;;;;8.83;3.15;;;;;;;24.64;30.67;100561.05;1738854;82;21428;-64
2023/05/22 07:02:36;;;;;;;8.63;3.85;;;;;;;24.79;30.68;100562.97;1721391;82;21612;-63
2023/05/22 07:05:11;;;;;;;6.97;3.40;;;;;;;24.91;30.49;100561.50;1730412;82;21103;-63
2023/05/22 07:07:43;;;;;;;5.67;3.60;;;;;;;25.11;30.33;100560.56;1737586;81;21075;-66
2023/05/22 07:10:13;;;;;;;5.97;3.80;;;;;;;25.33;29.41;100557.89;1732734;82;21059;-65
2023/05/22 07:12:43;;;;;;;5.12;2.98;;;;;;;25.65;29.20;100551.20;1739158;82;21035;-64
2023/05/22 07:15:14;;;;;;;4.55;2.67;;;;;;;25.65;29.20;100551.20;1731707;82;21012;-65
2023/05/22 07:17:47;;;;;;;8.45;2.60;;;;;;;25.81;28.53;100558.95;1739086;82;21078;-63
2023/05/22 07:20:19;;;;;;;5.15;2.47;;;;;;;26.04;27.94;100557.34;1731466;83;21467;-65
2023/05/22 07:23:02;;;;;;;4.08;2.33;;;;;;;26.39;26.86;100549.95;1737824;82;21151;-64
2023/05/22 07:25:32;;;;;;;4.67;2.33;;;;;;;26.39;26.86;100549.95;1732351;82;21036;-63
2023/05/22 07:28:07;;;;;;;6.45;2.30;;;;;;;26.63;26.30;100554.14;1731807;82;21067;-63
2023/05/22 07:30:36;;;;;;;4.75;2.27;;;;;;;26.64;25.84;100543.16;1731743;82;21035;-64
2023/05/22 07:33:06;;;;;;;6.33;2.10;;;;;;;26.79;25.80;100554.81;1713478;82;21053;-64
2023/05/22 07:35:36;;;;;;;3.83;1.92;;;;;;;26.96;25.53;100551.48;1732411;82;21046;-64
2023/05/22 07:38:06;;;;;;;4.03;2.02;;;;;;;27.07;25.51;100551.05;1738824;82;21007;-64
2023/05/22 07:40:36;;;;;;;4.20;2.22;;;;;;;27.26;25.03;100547.40;1731511;82;21071;-64
2023/05/22 07:43:05;;;;;;;2.83;2.08;;;;;;;27.27;24.96;100551.88;1738776;82;21483;-63
2023/05/22 07:45:34;;;;;;;7.47;2.50;;;;;;;27.15;25.04;100544.74;1731604;82;21035;-64
2023/05/22 07:48:04;;;;;;;2.42;1.87;;;;;;;27.16;25.03;100542.77;1731648;81;21542;-63
2023/05/22 07:50:36;;;;;;;2.98;1.90;;;;;;;27.18;24.99;100545.27;1739123;82;21050;-65
2023/05/22 07:53:05;;;;;;;5.75;2.10;;;;;;;27.26;24.85;100538.95;1731706;82;21537;-65
2023/05/22 07:55:36;;;;;;;5.33;2.10;;;;;;;27.28;24.57;100545.11;1738856;82;21062;-65
2023/05/22 07:58:09;;;;;;;3.37;2.08;;;;;;;27.19;24.79;100543.56;1731484;81;21509;-63
2023/05/22 08:00:42;;;;;;;3.42;1.80;;;;;;;27.13;24.21;100534.36;1731522;83;21055;-65
2023/05/22 08:03:12;;;;;;;5.25;2.20;;;;;;;27.15;23.99;100536.30;1738676;82;21058;-70
2023/05/22 08:05:41;;;;;;;6.12;2.72;;;;;;;27.18;24.15;100532.62;1731310;82;21063;-68
2023/05/22 08:08:10;;;;;;;8.48;2.10;;;;;;;27.17;24.10;100533.19;1731543;82;21098;-66
2023/05/22 08:10:39;;;;;;;7.00;2.65;;;;;;;27.09;24.70;100529.66;1725631;82;21045;-65
2023/05/22 08:13:11;;;;;;;4.15;2.00;;;;;;;27.07;24.72;100525.73;1729943;82;21063;-66
2023/05/22 08:15:41;;;;;;;7.55;1.92;;;;;;;27.16;24.39;100530.11;1734835;83;21523;-65
2023/05/22 08:18:10;;;;;;;2.70;1.70;;;;;;;27.29;24.41;100533.55;1725857;83;21066;-66
2023/05/22 08:20:39;;;;;;;3.17;2.00;;;;;;;27.36;24.34;100531.22;1692336;84;21038;-66
2023/05/22 08:23:09;;;;;;;7.58;2.33;;;;;;;27.41;24.05;100533.95;1693356;83;21070;-68
2023/05/22 08:25:40;;;;;;;3.95;2.12;;;;;;;27.46;24.10;100534.44;1685873;83;21459;-68
2023/05/22 08:28:11;;;;;;;2.77;1.80;;;;;;;27.65;23.93;100538.08;1725324;82;21521;-67
2023/05/22 08:30:41;;;;;;;3.15;1.90;;;;;;;28.00;23.35;100533.80;1734541;83;21524;-68
2023/05/22 08:33:11;;;;;;;3.10;1.65;;;;;;;28.11;22.84;100524.58;1734479;83;21447;-68
2023/05/22 08:35:40;;;;;;;2.33;1.95;;;;;;;27.94;23.06;100526.56;1734678;83;21082;-68
2023/05/22 08:38:11;;;;;;;7.50;2.50;;;;;;;27.85;23.36;100529.83;1734459;82;21098;-67
2023/05/22 08:40:41;;;;;;;3.52;1.92;;;;;;;28.06;22.93;100531.15;1734792;82;21023;-68
2023/05/22 08:43:14;;;;;;;2.52;1.82;;;;;;;28.24;22.03;100526.59;1680941;85;21031;-68
2023/05/22 08:45:43;;;;;;;7.33;2.62;;;;;;;28.24;21.62;100523.78;1644194;85;21095;-67
2023/05/22 08:48:13;;;;;;;5.92;1.80;;;;;;;28.23;21.76;100524.92;1643440;86;21048;-65
2023/05/22 08:50:42;;;;;;;3.95;1.85;;;;;;;28.22;22.23;100527.45;1643503;86;21019;-65
2023/05/22 08:53:12;;;;;;;3.83;1.70;;;;;;;28.22;22.33;100526.05;1643678;86;21082;-65
2023/05/22 08:55:42;;;;;;;3.42;2.25;;;;;;;28.21;22.20;100522.97;1643624;86;21031;-66
2023/05/22 08:58:14;;;;;;;4.67;2.62;;;;;;;28.18;21.98;100517.12;1643322;86;21092;-67
2023/05/22 09:00:44;;;;;;;3.15;1.80;;;;;;;28.19;22.26;100520.20;1652665;85;21055;-66
2023/05/22 09:03:17;;;;;;;4.70;1.80;;;;;;;28.25;21.80;100532.50;1691378;84;21047;-67
2023/05/22 09:05:48;;;;;;;6.58;2.72;;;;;;;28.18;21.83;100521.34;1685391;84;21201;-66
2023/05/22 09:08:18;;;;;;;3.67;2.00;;;;;;;28.01;21.55;100531.25;1693232;83;21603;-66
2023/05/22 09:10:50;;;;;;;5.50;3.15;;;;;;;27.74;21.50;100514.27;1699573;83;21059;-67
2023/05/22 09:13:28;;;;;;;6.08;3.35;;;;;;;27.39;22.16;100517.94;1699030;83;21020;-65
2023/05/22 09:16:08;;;;;;;7.03;2.25;;;;;;;27.19;22.79;100523.87;1699393;83;21076;-69
2023/05/22 09:18:38;;;;;;;6.12;2.00;;;;;;;27.13;22.94;100516.66;1718080;82;21457;-67
2023/05/22 09:21:10;;;;;;;5.05;2.12;;;;;;;27.06;22.93;100519.02;1739485;82;21071;-66
2023/05/22 09:23:42;;;;;;;3.98;1.87;;;;;;;26.93;23.27;100516.93;1738011;82;21074;-65
2023/05/22 09:26:12;;;;;;;4.97;2.50;;;;;;;26.87;23.04;100512.52;1719923;82;21118;-66
2023/05/22 09:28:41;;;;;;;4.33;2.55;;;;;;;26.75;23.07;100518.03;1744554;82;21071;-66
2023/05/22 09:31:11;;;;;;;3.80;1.82;;;;;;;26.63;22.76;100507.77;1744709;81;21050;-66
2023/05/22 09:33:40;;;;;;;4.22;2.10;;;;;;;26.41;23.19;100516.77;1744843;82;21027;-65
2023/05/22 09:36:09;;;;;;;5.78;2.87;;;;;;;26.23;23.08;100500.09;1690780;81;21500;-66
2023/05/22 09:38:40;;;;;;;3.50;1.82;;;;;;;26.11;23.19;100512.89;1744667;81;21054;-67
2023/05/22 09:41:09;;;;;;;4.47;1.85;;;;;;;25.91;23.17;100502.13;1684380;82;21080;-66
2023/05/22 09:43:39;;;;;;;4.70;2.12;;;;;;;25.59;23.73;100501.30;1744832;82;21078;-65
2023/05/22 09:46:08;;;;;;;4.35;1.87;;;;;;;25.55;23.74;100504.42;1727802;81;21051;-65
2023/05/22 09:48:40;;;;;;;4.58;2.10;;;;;;;25.55;23.65;100493.20;1739243;81;21066;-64
2023/05/22 09:51:10;;;;;;;4.45;1.70;;;;;;;25.51;23.92;100487.91;1739897;82;21533;-64
2023/05/22 09:53:40;;;;;;;3.65;1.90;;;;;;;25.43;23.73;100484.33;1739523;81;21058;-67
2023/05/22 09:56:11;;;;;;;3.70;1.80;;;;;;;25.28;24.04;100490.05;1739562;82;21031;-66
2023/05/22 09:58:40;;;;;;;2.83;2.20;;;;;;;25.20;24.11;100485.06;1739254;81;21046;-66
2023/05/22 10:01:10;;;;;;;3.77;1.90;;;;;;;25.13;23.86;100491.57;1739472;82;21031;-66
2023/05/22 10:03:40;;;;;;;1.60;1.50;;;;;;;25.08;24.02;100489.64;1739455;82;21043;-67
2023/05/22 10:06:11;;;;;;;2.90;2.22;;;;;;;24.99;24.01;100477.94;1739316;81;21063;-68
2023/05/22 10:08:43;;;;;;;5.60;2.10;;;;;;;24.95;24.27;100483.27;1739139;82;21537;-68
2023/05/22 10:11:11;;;;;;;4.05;1.72;;;;;;;24.89;24.20;100474.05;1734538;82;21039;-68
2023/05/22 10:13:40;;;;;;;6.30;2.52;;;;;;;24.90;24.51;100474.33;1734579;83;21501;-65
2023/05/22 10:16:10;;;;;;;6.15;3.98;;;;;;;24.99;24.42;100470.37;1734671;83;21095;-66
2023/05/22 10:18:41;;;;;;;4.58;2.67;;;;;;;25.07;24.32;100468.91;1710696;83;21081;-65
2023/05/22 10:21:11;;;;;;;3.52;2.02;;;;;;;25.15;24.38;100469.68;1692363;84;21411;-69
2023/05/22 10:23:42;;;;;;;5.72;1.80;;;;;;;25.20;24.28;100471.88;1685730;84;20995;-67
2023/05/22 10:26:11;;;;;;;3.15;1.62;;;;;;;25.24;24.27;100472.13;1672478;84;21054;-67
2023/05/22 10:28:43;;;;;;;4.97;1.60;;;;;;;25.17;23.77;100459.01;1686050;83;21458;-68
2023/05/22 10:31:33;;;;;;;3.65;1.90;;;;;;;25.07;23.94;100462.73;1690286;84;20987;-66
2023/05/22 10:34:14;;;;;;;3.72;1.72;;;;;;;25.06;24.31;100471.44;1691381;84;21030;-65
2023/05/22 10:37:10;;;;;;;12.25;3.40;;;;;;;24.94;24.17;100460.56;1669390;84;21689;-68
2023/05/22 10:39:56;;;;;;;2.75;1.72;;;;;;;24.69;24.62;100461.55;1684811;84;21630;-65
2023/05/22 10:42:31;;;;;;;2.85;1.50;;;;;;;24.54;24.70;100463.03;1691925;84;20999;-67
2023/05/22 10:45:03;;;;;;;3.37;1.90;;;;;;;24.40;24.68;100455.83;1690484;84;21066;-64
2023/05/22 10:47:33;;;;;;;3.08;1.50;;;;;;;24.32;24.97;100448.88;1691685;83;21130;-66
2023/05/22 10:50:08;;;;;;;6.60;1.90;;;;;;;24.38;24.92;100448.28;1685695;84;21026;-64
2023/05/22 10:52:38;;;;;;;6.10;1.95;;;;;;;24.49;24.84;100440.66;1691567;84;20993;-65
2023/05/22 10:55:08;;;;;;;3.67;1.90;;;;;;;24.62;24.88;100446.45;1687620;83;21055;-67
2023/05/22 10:57:38;;;;;;;4.85;1.90;;;;;;;24.66;24.97;100449.52;1690815;84;21015;-68
2023/05/22 11:00:13;;;;;;;5.50;2.37;;;;;;;24.60;25.10;100444.51;1691977;84;21059;-67
2023/05/22 11:02:45;;;;;;;2.02;1.72;;;;;;;24.53;25.26;100436.98;1692814;83;21034;-64
2023/05/22 11:05:24;;;;;;;3.65;1.90;;;;;;;24.51;25.34;100438.41;1684749;85;21086;-64
2023/05/22 11:08:29;;;;;;;4.05;1.60;;;;;;;24.56;25.37;100434.17;1691488;84;21337;-67
2023/05/22 11:10:58;;;;;;;4.47;2.00;;;;;;;24.61;25.01;100431.33;1680156;83;21483;-65
2023/05/22 11:13:28;;;;;;;6.40;1.98;;;;;;;24.58;24.84;100420.70;1631104;85;21059;-64
2023/05/22 11:15:58;;;;;;;2.08;1.72;;;;;;;24.64;25.00;100425.15;1670573;84;21080;-68
2023/05/22 11:18:28;;;;;;;2.60;1.80;;;;;;;24.75;25.14;100429.59;1690457;83;21359;-68
2023/05/22 11:20:59;;;;;;;2.83;1.80;;;;;;;24.75;25.10;100435.19;1720431;83;21096;-66
2023/05/22 11:23:29;;;;;;;3.62;1.92;;;;;;;24.64;25.38;100425.98;1720307;83;20993;-67
2023/05/22 11:26:21;;;;;;;4.12;2.00;;;;;;;24.58;25.31;100426.31;1678672;83;21068;-68
2023/05/22 11:28:52;;;;;;;8.65;2.27;;;;;;;24.53;25.35;100426.34;1720309;83;21045;-66
2023/05/22 11:31:22;;;;;;;4.00;1.85;;;;;;;24.48;25.33;100430.58;1720268;83;21052;-66
2023/05/22 11:33:52;;;;;;;2.58;1.90;;;;;;;24.42;25.48;100425.57;1720346;83;21045;-68
2023/05/22 11:36:22;;;;;;;6.92;2.00;;;;;;;24.30;25.43;100413.31;1720373;83;21067;-70
2023/05/22 11:38:59;;;;;;;6.08;1.98;;;;;;;24.25;25.91;100411.07;1700409;83;21029;-68
2023/05/22 11:41:35;;;;;;;5.47;1.80;;;;;;;24.26;25.73;100421.98;1701825;83;21073;-67
2023/05/22 11:44:03;;;;;;;5.33;1.98;;;;;;;24.25;25.64;100409.11;1720435;83;21660;-68
2023/05/22 11:46:33;;;;;;;2.15;1.67;;;;;;;24.19;25.96;100408.02;1677748;83;21045;-66